createdAt,value
2022-09-06T00:00:57.115Z,59.47
2022-09-06T00:03:24.264Z,59.31
2022-09-06T00:05:51.022Z,59.46
2022-09-06T00:08:17.557Z,59.69
2022-09-06T00:10:44.098Z,59.67
2022-09-06T00:13:11.799Z,59.75
2022-09-06T00:15:38.584Z,59.67
2022-09-06T00:18:07.621Z,60.15
2022-09-06T00:20:37.774Z,59.86
2022-09-06T00:23:06.660Z,59.83
2022-09-06T00:25:33.612Z,59.53
2022-09-06T00:28:05.342Z,59.89
2022-09-06T00:30:33.443Z,59.36
2022-09-06T00:33:00.383Z,59.17
2022-09-06T00:35:28.957Z,59.46
2022-09-06T00:38:00.616Z,60.24
2022-09-06T00:40:29.922Z,59.36
2022-09-06T00:42:57.787Z,59.56
2022-09-06T00:45:27.398Z,59.68
2022-09-06T00:47:54.780Z,59.69
2022-09-06T00:50:21.824Z,59.77
2022-09-06T00:52:52.060Z,59.81
2022-09-06T00:55:20.220Z,59.72
2022-09-06T00:57:46.962Z,60.16
2022-09-06T01:00:14.037Z,59.56
2022-09-06T01:02:40.868Z,59.67
2022-09-06T01:05:07.949Z,59.67
2022-09-06T01:07:58.715Z,61.10
2022-09-06T01:11:02.938Z,61.12
2022-09-06T01:13:50.822Z,61.00
2022-09-06T01:16:17.392Z,61.12
2022-09-06T01:19:04.712Z,61.07
2022-09-06T01:22:12.911Z,60.98
2022-09-06T01:25:10.367Z,61.11
2022-09-06T01:28:04.675Z,60.87
2022-09-06T01:30:34.703Z,60.00
2022-09-06T01:33:16.691Z,61.01
2022-09-06T01:35:51.870Z,60.14
2022-09-06T01:38:19.232Z,60.17
2022-09-06T01:40:45.801Z,60.42
2022-09-06T01:43:18.272Z,60.62
2022-09-06T01:46:00.945Z,61.57
2022-09-06T01:48:45.310Z,61.59
2022-09-06T01:51:27.609Z,61.08
2022-09-06T01:54:21.576Z,61.35
2022-09-06T01:56:56.786Z,61.53
2022-09-06T01:59:35.167Z,60.45
2022-09-06T02:02:10.789Z,61.55
2022-09-06T02:04:46.972Z,61.49
2022-09-06T02:07:25.081Z,61.40
2022-09-06T02:09:58.188Z,61.11
2022-09-06T02:12:28.078Z,60.75
2022-09-06T02:15:20.282Z,61.60
2022-09-06T02:17:53.273Z,61.69
2022-09-06T02:20:24.789Z,61.38
2022-09-06T02:22:53.315Z,60.68
2022-09-06T02:25:32.748Z,62.15
2022-09-06T02:27:59.509Z,60.94
2022-09-06T02:30:26.201Z,61.02
2022-09-06T02:33:05.276Z,62.10
2022-09-06T02:35:32.326Z,61.08
2022-09-06T02:37:59.174Z,61.29
2022-09-06T02:40:26.018Z,61.31
2022-09-06T02:42:52.542Z,61.49
2022-09-06T02:45:19.182Z,61.38
2022-09-06T02:47:45.792Z,61.29
2022-09-06T02:50:12.315Z,61.44
2022-09-06T02:52:38.913Z,61.33
2022-09-06T02:55:06.154Z,61.49
2022-09-06T02:57:32.721Z,61.24
2022-09-06T02:59:59.308Z,61.43
2022-09-06T03:02:25.876Z,61.24
2022-09-06T03:04:52.500Z,61.20
2022-09-06T03:07:19.077Z,61.07
2022-09-06T03:09:45.837Z,61.14
2022-09-06T03:12:12.544Z,61.33
2022-09-06T03:14:39.150Z,61.37
2022-09-06T03:17:05.690Z,61.24
2022-09-06T03:19:32.266Z,61.30
2022-09-06T03:21:58.843Z,61.16
2022-09-06T03:24:25.367Z,61.19
2022-09-06T03:26:51.918Z,61.20
2022-09-06T03:29:18.499Z,61.30
2022-09-06T03:31:45.051Z,61.12
2022-09-06T03:34:11.645Z,61.37
2022-09-06T03:36:38.254Z,61.43
2022-09-06T03:39:04.807Z,61.44
2022-09-06T03:41:31.414Z,61.43
2022-09-06T03:43:57.936Z,61.34
2022-09-06T03:46:24.557Z,61.60
2022-09-06T03:48:51.256Z,61.51
2022-09-06T03:51:17.820Z,61.52
2022-09-06T03:53:44.362Z,61.58
2022-09-06T03:56:11.082Z,61.76
2022-09-06T03:58:37.679Z,61.69
2022-09-06T04:01:07.568Z,61.74
2022-09-06T04:03:35.155Z,61.61
2022-09-06T04:06:02.251Z,61.69
2022-09-06T04:08:29.212Z,61.68
2022-09-06T04:10:57.112Z,61.69
2022-09-06T04:13:24.560Z,61.82
2022-09-06T04:15:51.988Z,61.68
2022-09-06T04:18:19.477Z,61.67
2022-09-06T04:20:49.266Z,62.10
2022-09-06T04:23:16.513Z,61.91
2022-09-06T04:25:50.980Z,62.98
2022-09-06T04:28:18.444Z,61.92
2022-09-06T04:31:04.553Z,63.26
2022-09-06T04:33:33.737Z,62.06
2022-09-06T04:36:01.686Z,62.16
2022-09-06T04:38:30.151Z,62.22
2022-09-06T04:40:56.715Z,62.43
2022-09-06T04:43:23.945Z,62.50
2022-09-06T04:45:50.587Z,62.38
2022-09-06T04:48:17.252Z,62.46
2022-09-06T04:50:43.934Z,62.56
2022-09-06T04:53:10.505Z,62.58
2022-09-06T04:55:37.699Z,62.60
2022-09-06T04:58:04.887Z,62.90
2022-09-06T05:00:33.531Z,62.97
2022-09-06T05:03:00.511Z,63.06
2022-09-06T05:05:27.118Z,63.07
2022-09-06T05:07:55.019Z,63.38
2022-09-06T05:10:23.141Z,63.37
2022-09-06T05:12:49.897Z,63.57
2022-09-06T05:15:17.795Z,63.14
2022-09-06T05:17:44.424Z,63.33
2022-09-06T05:20:12.213Z,63.60
2022-09-06T05:22:39.849Z,63.51
2022-09-06T05:25:07.820Z,63.47
2022-09-06T05:27:34.485Z,63.54
2022-09-06T05:30:01.058Z,62.85
2022-09-06T05:32:27.625Z,62.94
2022-09-06T05:34:54.219Z,63.11
2022-09-06T05:37:20.815Z,63.08
2022-09-06T05:39:47.458Z,63.29
2022-09-06T05:42:19.011Z,63.20
2022-09-06T05:44:45.940Z,63.06
2022-09-06T05:47:12.576Z,63.30
2022-09-06T05:49:39.163Z,63.30
2022-09-06T05:52:05.800Z,63.23
2022-09-06T05:54:32.305Z,63.66
2022-09-06T05:56:58.815Z,63.49
2022-09-06T05:59:25.448Z,63.75
2022-09-06T06:01:53.525Z,64.00
2022-09-06T06:04:20.378Z,63.93
2022-09-06T06:06:47.236Z,64.16
2022-09-06T06:09:13.962Z,64.36
2022-09-06T06:11:41.249Z,64.43
2022-09-06T06:14:08.616Z,64.58
2022-09-06T06:16:35.613Z,64.53
2022-09-06T06:19:02.307Z,64.38
2022-09-06T06:21:30.789Z,63.45
2022-09-06T06:24:00.493Z,62.94
2022-09-06T06:26:29.532Z,62.20
2022-09-06T06:28:56.227Z,61.71
2022-09-06T06:31:22.940Z,61.61
2022-09-06T06:33:50.240Z,61.07
2022-09-06T06:36:16.801Z,61.00
2022-09-06T06:38:45.574Z,60.53
2022-09-06T06:41:14.686Z,60.61
2022-09-06T06:43:41.519Z,60.91
2022-09-06T06:46:11.275Z,60.59
2022-09-06T06:48:39.072Z,60.95
2022-09-06T06:51:05.836Z,60.93
2022-09-06T06:53:32.474Z,60.74
2022-09-06T06:55:59.666Z,60.44
2022-09-06T06:58:26.366Z,59.99
2022-09-06T07:00:53.136Z,59.95
2022-09-06T07:03:19.717Z,59.80
2022-09-06T07:08:33.326Z,59.78
2022-09-06T07:11:00.002Z,59.58
2022-09-06T07:13:26.504Z,59.52
2022-09-06T07:16:06.986Z,58.32
2022-09-06T07:18:33.587Z,59.14
2022-09-06T07:26:34.651Z,58.92
2022-09-06T07:29:02.786Z,58.57
2022-09-06T07:34:18.971Z,58.41
2022-09-06T07:36:45.878Z,58.39
2022-09-06T07:39:12.688Z,58.26
2022-09-06T07:41:39.543Z,58.21
2022-09-06T07:44:06.261Z,58.20
2022-09-06T07:46:33.306Z,57.85
2022-09-06T07:49:00.240Z,56.96
2022-09-06T07:51:27.012Z,57.27
2022-09-06T07:54:07.425Z,55.78
2022-09-06T07:56:41.784Z,56.21
2022-09-06T07:59:08.634Z,55.85
2022-09-06T08:01:38.050Z,55.28
2022-09-06T08:04:11.851Z,54.66
2022-09-06T08:09:32.669Z,54.69
2022-09-06T08:11:59.495Z,54.33
2022-09-06T08:14:26.497Z,53.98
2022-09-06T08:16:53.440Z,53.58
2022-09-06T08:19:20.118Z,53.17
2022-09-06T08:21:46.932Z,53.73
2022-09-06T08:24:13.673Z,53.49
2022-09-06T08:26:40.688Z,53.68
2022-09-06T08:29:09.422Z,53.56
2022-09-06T08:31:39.193Z,53.97
2022-09-06T08:34:06.370Z,54.64
2022-09-06T08:36:33.866Z,54.80
2022-09-06T08:39:06.427Z,54.13
2022-09-06T08:41:37.995Z,55.22
2022-09-06T08:47:22.017Z,55.13
2022-09-06T08:49:57.137Z,53.86
2022-09-06T08:55:52.720Z,53.52
2022-09-06T08:58:32.323Z,53.62
2022-09-06T09:01:05.936Z,53.95
2022-09-06T09:03:35.749Z,54.33
2022-09-06T09:06:04.655Z,54.30
2022-09-06T09:08:41.471Z,53.38
2022-09-06T09:11:14.408Z,54.07
2022-09-06T09:13:57.822Z,53.44
2022-09-06T09:16:24.941Z,53.23
2022-09-06T09:18:58.593Z,51.58
2022-09-06T09:21:30.662Z,52.99
2022-09-06T09:24:02.395Z,52.58
2022-09-06T09:26:52.188Z,51.80
2022-09-06T09:29:21.703Z,52.37
2022-09-06T09:31:54.586Z,50.55
2022-09-06T09:34:34.381Z,50.30
2022-09-06T09:40:04.961Z,50.60
2022-09-06T09:42:36.132Z,48.12
2022-09-06T09:45:27.991Z,46.88
2022-09-06T09:47:55.254Z,48.57
2022-09-06T09:50:33.647Z,48.41
2022-09-06T09:53:14.815Z,47.50
2022-09-06T09:55:42.690Z,48.75
2022-09-06T09:58:18.282Z,48.67
2022-09-06T10:00:44.974Z,48.90
2022-09-06T10:03:29.518Z,46.90
2022-09-06T10:06:02.521Z,49.13
2022-09-06T10:08:33.664Z,48.37
2022-09-06T10:11:00.257Z,48.82
2022-09-06T10:13:29.092Z,48.17
2022-09-06T10:15:57.369Z,48.62
2022-09-06T10:18:41.970Z,47.59
2022-09-06T10:21:11.590Z,47.83
2022-09-06T10:26:43.046Z,47.19
2022-09-06T10:29:09.871Z,48.17
2022-09-06T10:31:47.805Z,47.02
2022-09-06T10:34:19.411Z,47.51
2022-09-06T10:37:11.880Z,47.92
2022-09-06T10:39:49.582Z,46.99
2022-09-06T10:42:29.351Z,47.11
2022-09-06T10:45:20.951Z,47.87
2022-09-06T10:47:55.020Z,47.14
2022-09-06T10:50:30.721Z,47.51
2022-09-06T10:53:04.441Z,47.92
2022-09-06T10:55:31.518Z,47.95
2022-09-06T10:58:19.840Z,46.57
2022-09-06T11:00:48.178Z,46.60
2022-09-06T11:04:00.035Z,45.37
2022-09-06T11:06:32.797Z,45.37
2022-09-06T11:09:08.451Z,46.04
2022-09-06T11:11:50.961Z,44.35
2022-09-06T11:14:21.559Z,46.00
2022-09-06T11:16:58.516Z,44.47
2022-09-06T11:19:33.702Z,43.07
2022-09-06T11:22:11.506Z,44.29
2022-09-06T11:24:56.231Z,45.01
2022-09-06T11:27:31.851Z,43.13
2022-09-06T11:30:01.719Z,43.02
2022-09-06T11:32:39.949Z,42.73
2022-09-06T11:35:09.792Z,43.01
2022-09-06T11:37:38.199Z,42.95
2022-09-06T11:40:29.225Z,41.80
2022-09-06T11:42:55.983Z,43.10
2022-09-06T11:45:42.948Z,41.56
2022-09-06T11:48:31.150Z,43.33
2022-09-06T11:50:57.709Z,42.13
2022-09-06T11:53:27.921Z,41.79
2022-09-06T11:56:00.539Z,40.51
2022-09-06T11:58:32.988Z,40.91
2022-09-06T12:01:14.694Z,40.27
2022-09-06T12:04:09.701Z,40.83
2022-09-06T12:07:03.204Z,38.51
2022-09-06T12:09:35.319Z,39.43
2022-09-06T12:12:02.866Z,40.67
2022-09-06T12:14:37.394Z,39.09
2022-09-06T12:17:18.575Z,39.78
2022-09-06T12:19:49.778Z,39.52
2022-09-06T12:22:28.050Z,39.37
2022-09-06T12:24:59.330Z,38.86
2022-09-06T12:27:29.551Z,38.45
2022-09-06T12:29:59.870Z,38.15
2022-09-06T12:32:48.533Z,36.75
2022-09-06T12:38:15.474Z,37.78
2022-09-06T12:40:47.503Z,37.19
2022-09-06T12:43:16.496Z,38.03
2022-09-06T12:45:44.791Z,38.44
2022-09-06T12:48:33.192Z,38.39
2022-09-06T12:51:08.604Z,37.54
2022-09-06T12:53:35.644Z,38.55
2022-09-06T12:56:03.855Z,38.65
2022-09-06T12:58:30.348Z,38.59
2022-09-06T13:01:04.054Z,39.15
2022-09-06T13:03:37.314Z,38.68
2022-09-06T13:06:06.192Z,38.83
2022-09-06T13:08:46.547Z,38.68
2022-09-06T13:11:17.166Z,38.79
2022-09-06T13:13:52.952Z,38.26
2022-09-06T13:16:25.365Z,37.91
2022-09-06T13:18:53.070Z,37.58
2022-09-06T13:21:46.796Z,36.68
2022-09-06T13:24:48.781Z,36.31
2022-09-06T13:27:34.234Z,37.72
2022-09-06T13:30:08.260Z,37.89
2022-09-06T13:32:36.620Z,38.13
2022-09-06T13:35:04.129Z,37.86
2022-09-06T13:37:33.027Z,38.26
2022-09-06T13:40:00.101Z,37.53
2022-09-06T13:42:26.636Z,36.65
2022-09-06T13:44:53.542Z,36.84
2022-09-06T13:47:20.113Z,37.50
2022-09-06T13:49:46.694Z,37.61
2022-09-06T13:52:14.379Z,37.02
2022-09-06T13:54:40.956Z,38.42
2022-09-06T13:57:07.621Z,37.95
2022-09-06T13:59:34.161Z,37.58
2022-09-06T14:02:09.968Z,37.00
2022-09-06T14:04:36.870Z,38.12
2022-09-06T14:07:04.561Z,35.24
2022-09-06T14:09:31.072Z,36.28
2022-09-06T14:12:34.960Z,35.76
2022-09-06T14:15:01.592Z,35.26
2022-09-06T14:17:28.191Z,34.87
2022-09-06T14:19:54.833Z,35.60
2022-09-06T14:22:21.426Z,35.96
2022-09-06T14:24:47.966Z,36.55
2022-09-06T14:27:14.701Z,36.68
2022-09-06T14:29:41.212Z,36.58
2022-09-06T14:32:07.708Z,37.06
2022-09-06T14:34:34.261Z,37.10
2022-09-06T14:37:00.772Z,36.74
2022-09-06T14:39:27.415Z,36.39
2022-09-06T14:41:54.131Z,35.47
2022-09-06T14:44:20.896Z,35.39
2022-09-06T14:46:47.571Z,34.51
2022-09-06T14:49:14.178Z,33.99
2022-09-06T14:51:40.763Z,33.44
2022-09-06T14:54:12.573Z,33.40
2022-09-06T14:56:40.912Z,33.75
2022-09-06T14:59:08.375Z,34.16
2022-09-06T15:01:38.315Z,34.93
2022-09-06T15:04:07.198Z,35.30
2022-09-06T15:06:34.826Z,35.54
2022-09-06T15:09:01.430Z,36.13
2022-09-06T15:11:40.780Z,36.96
2022-09-06T15:14:14.575Z,36.93
2022-09-06T15:16:41.211Z,37.48
2022-09-06T15:19:07.879Z,37.83
2022-09-06T15:21:34.931Z,38.15
2022-09-06T15:24:01.949Z,38.73
2022-09-06T15:26:29.728Z,39.02
2022-09-06T15:28:56.250Z,39.38
2022-09-06T15:31:22.969Z,39.51
2022-09-06T15:33:50.807Z,39.34
2022-09-06T15:36:17.446Z,40.00
2022-09-06T15:38:46.341Z,39.64
2022-09-06T15:41:15.134Z,39.95
2022-09-06T15:43:44.632Z,40.51
2022-09-06T15:46:11.319Z,40.75
2022-09-06T15:48:48.953Z,41.03
2022-09-06T15:51:17.306Z,41.32
2022-09-06T15:53:44.346Z,41.10
2022-09-06T15:56:14.850Z,41.88
2022-09-06T15:58:41.859Z,41.56
2022-09-06T16:01:16.857Z,41.48
2022-09-06T16:03:46.530Z,41.44
2022-09-06T16:06:31.150Z,41.70
2022-09-06T16:09:09.697Z,41.30
2022-09-06T16:11:36.904Z,41.12
2022-09-06T16:14:05.488Z,41.01
2022-09-06T16:16:32.387Z,40.94
2022-09-06T16:18:59.077Z,41.21
2022-09-06T16:21:29.872Z,41.60
2022-09-06T16:24:05.357Z,41.53
2022-09-06T16:26:34.778Z,41.31
2022-09-06T16:29:03.171Z,42.07
2022-09-06T16:31:30.396Z,42.07
2022-09-06T16:33:58.112Z,42.20
2022-09-06T16:36:25.683Z,42.36
2022-09-06T16:38:52.452Z,42.93
2022-09-06T16:41:22.885Z,43.06
2022-09-06T16:43:49.560Z,42.87
2022-09-06T16:46:17.349Z,43.30
2022-09-06T16:48:43.936Z,43.60
2022-09-06T16:51:16.197Z,44.62
2022-09-06T16:53:45.439Z,44.45
2022-09-06T16:56:14.685Z,44.36
2022-09-06T16:58:41.977Z,44.36
2022-09-06T17:01:09.726Z,44.50
2022-09-06T17:03:37.512Z,44.31
2022-09-06T17:06:04.396Z,44.25
2022-09-06T17:08:32.334Z,44.35
2022-09-06T17:11:03.317Z,44.79
2022-09-06T17:13:30.601Z,44.75
2022-09-06T17:15:57.685Z,45.40
2022-09-06T17:18:24.610Z,45.75
2022-09-06T17:20:58.727Z,47.25
2022-09-06T17:23:25.446Z,46.76
2022-09-06T17:25:52.188Z,47.49
2022-09-06T17:28:19.824Z,47.84
2022-09-06T17:30:46.482Z,48.35
2022-09-06T17:33:13.628Z,48.49
2022-09-06T17:35:40.424Z,48.34
2022-09-06T17:38:07.106Z,48.45
2022-09-06T17:40:34.225Z,48.64
2022-09-06T17:43:00.992Z,48.66
2022-09-06T17:45:28.144Z,48.96
2022-09-06T17:47:54.712Z,48.62
2022-09-06T17:50:21.417Z,48.35
2022-09-06T17:52:50.939Z,48.04
2022-09-06T17:55:17.598Z,48.07
2022-09-06T17:57:44.191Z,48.00
2022-09-06T18:00:11.503Z,47.87
2022-09-06T18:02:38.089Z,47.83
2022-09-06T18:05:04.838Z,47.39
2022-09-06T18:07:31.554Z,47.02
2022-09-06T18:09:58.263Z,46.90
2022-09-06T18:12:24.973Z,46.85
2022-09-06T18:14:52.000Z,46.92
2022-09-06T18:17:18.545Z,47.09
2022-09-06T18:19:45.176Z,47.56
2022-09-06T18:22:11.963Z,47.68
2022-09-06T18:24:38.601Z,48.17
2022-09-06T18:27:05.205Z,48.47
2022-09-06T18:29:31.981Z,48.62
2022-09-06T18:31:58.795Z,49.42
2022-09-06T18:34:25.389Z,49.61
2022-09-06T18:36:52.130Z,49.90
2022-09-06T18:39:18.861Z,50.38
2022-09-06T18:41:45.623Z,50.94
2022-09-06T18:44:12.297Z,50.78
2022-09-06T18:46:39.177Z,50.90
2022-09-06T18:49:06.124Z,50.80
2022-09-06T18:51:33.186Z,51.36
2022-09-06T18:54:00.314Z,51.71
2022-09-06T18:56:27.144Z,52.32
2022-09-06T18:58:58.067Z,53.13
2022-09-06T19:01:26.256Z,53.27
2022-09-06T19:03:52.943Z,53.64
2022-09-06T19:06:21.366Z,53.99
2022-09-06T19:08:49.036Z,54.30
2022-09-06T19:11:18.262Z,54.40
2022-09-06T19:13:46.950Z,54.18
2022-09-06T19:16:14.443Z,54.27
2022-09-06T19:18:42.075Z,53.89
2022-09-06T19:21:14.256Z,55.83
2022-09-06T19:23:42.727Z,54.60
2022-09-06T19:26:12.712Z,54.84
2022-09-06T19:28:40.128Z,54.91
2022-09-06T19:31:13.466Z,56.48
2022-09-06T19:33:41.668Z,55.26
2022-09-06T19:36:12.050Z,54.74
2022-09-06T19:39:01.521Z,55.12
2022-09-06T19:41:26.939Z,54.71
2022-09-06T19:43:55.487Z,54.90
2022-09-06T19:46:22.995Z,55.28
2022-09-06T19:48:51.641Z,55.68
2022-09-06T19:51:19.632Z,56.20
2022-09-06T19:53:51.942Z,57.63
2022-09-06T19:56:21.379Z,56.79
2022-09-06T19:58:53.535Z,58.58
2022-09-06T20:01:20.238Z,56.99
2022-09-06T20:03:46.974Z,57.14
2022-09-06T20:06:13.807Z,57.17
2022-09-06T20:08:40.533Z,57.42
2022-09-06T20:11:08.732Z,57.13
2022-09-06T20:13:37.117Z,56.71
2022-09-06T20:16:05.228Z,56.66
2022-09-06T20:18:32.248Z,57.03
2022-09-06T20:20:58.893Z,56.99
2022-09-06T20:23:27.141Z,57.43
2022-09-06T20:26:08.075Z,58.45
2022-09-06T20:28:35.255Z,57.22
2022-09-06T20:31:05.009Z,57.22
2022-09-06T20:33:32.906Z,57.23
2022-09-06T20:36:01.209Z,57.47
2022-09-06T20:38:27.847Z,57.88
2022-09-06T20:41:07.429Z,58.28
2022-09-06T20:43:35.903Z,57.57
2022-09-06T20:46:04.692Z,57.51
2022-09-06T20:48:32.131Z,57.59
2022-09-06T20:51:04.175Z,58.39
2022-09-06T20:53:31.275Z,57.76
2022-09-06T20:56:06.530Z,58.75
2022-09-06T20:58:33.424Z,57.58
2022-09-06T21:01:05.140Z,57.94
2022-09-06T21:03:31.747Z,57.65
2022-09-06T21:05:58.458Z,57.57
2022-09-06T21:08:25.588Z,57.75
2022-09-06T21:10:59.395Z,58.43
2022-09-06T21:13:26.094Z,58.03
2022-09-06T21:15:52.729Z,58.00
2022-09-06T21:18:19.301Z,58.13
2022-09-06T21:20:55.837Z,59.45
2022-09-06T21:23:24.187Z,58.13
2022-09-06T21:25:59.307Z,59.17
2022-09-06T21:28:35.082Z,59.06
2022-09-06T21:31:05.925Z,59.68
2022-09-06T21:33:33.170Z,58.74
2022-09-06T21:36:30.468Z,59.29
2022-09-06T21:39:02.366Z,59.63
2022-09-06T21:41:31.643Z,58.73
2022-09-06T21:44:00.810Z,58.96
2022-09-06T21:46:33.689Z,59.74
2022-09-06T21:49:02.583Z,58.95
2022-09-06T21:51:29.336Z,59.07
2022-09-06T21:53:56.772Z,58.89
2022-09-06T21:56:24.546Z,59.18
2022-09-06T21:58:53.116Z,59.40
2022-09-06T22:01:19.869Z,59.54
2022-09-06T22:03:46.904Z,59.51
2022-09-06T22:06:16.987Z,60.44
2022-09-06T22:08:43.763Z,59.46
2022-09-06T22:11:16.106Z,60.94
2022-09-06T22:13:43.572Z,59.90
2022-09-06T22:16:11.753Z,59.47
2022-09-06T22:18:38.759Z,60.52
2022-09-06T22:21:11.038Z,60.83
2022-09-06T22:23:39.427Z,60.19
2022-09-06T22:26:09.052Z,59.89
2022-09-06T22:28:36.417Z,59.97
2022-09-06T22:31:03.108Z,59.92
2022-09-06T22:33:30.260Z,60.01
2022-09-06T22:35:57.044Z,60.26
2022-09-06T22:38:23.669Z,60.27
2022-09-06T22:40:50.465Z,60.34
2022-09-06T22:43:17.024Z,60.16
2022-09-06T22:45:47.441Z,60.49
2022-09-06T22:48:16.917Z,60.23
2022-09-06T22:50:44.332Z,60.46
2022-09-06T22:53:11.872Z,60.58
2022-09-06T22:55:38.949Z,60.30
2022-09-06T22:58:05.953Z,60.66
2022-09-06T23:00:35.729Z,61.90
2022-09-06T23:03:02.541Z,60.96
2022-09-06T23:05:30.929Z,61.15
2022-09-06T23:07:57.637Z,61.12
2022-09-06T23:10:24.294Z,61.10
2022-09-06T23:12:53.948Z,61.90
2022-09-06T23:15:20.493Z,60.86
2022-09-06T23:17:47.076Z,61.23
2022-09-06T23:20:13.806Z,61.10
2022-09-06T23:22:40.949Z,60.83
2022-09-06T23:25:08.488Z,60.85
2022-09-06T23:27:35.108Z,60.73
2022-09-06T23:30:01.811Z,60.68
2022-09-06T23:32:28.379Z,60.87
2022-09-06T23:34:54.931Z,61.24
2022-09-06T23:37:21.989Z,60.81
2022-09-06T23:39:48.790Z,61.10
2022-09-06T23:42:15.380Z,60.93
2022-09-06T23:44:42.020Z,61.02
2022-09-06T23:47:08.615Z,60.77
2022-09-06T23:49:35.134Z,60.81
2022-09-06T23:52:01.907Z,60.81
2022-09-06T23:54:28.524Z,60.99
2022-09-06T23:56:55.099Z,60.85
2022-09-06T23:59:21.772Z,61.11
